Marion, Massachusetts
Current Conditions -  °F | °C
As of 6:53 AM on Monday 22 Dec 2014 (Local Time) from KEWB Reporting Station
Haze Haze  
Wind Chill: 34°   Ceiling: 400
Heat Index: 34°   Visibility: 5mi
Dew Point: 33°   Wind: 3mph
Humidity: 96%   Direction: 360°N
Pressure: 30.36"   Gusts: NA
Location:  41.7°N, 70.76°W
Report Text: KEWB 221153Z 36003KT 5SM BR BKN004 01/01 A3036 RMK AO2 SLP280 T00110006 10011 20011 51014
Loading
Personal Weather Stations






























Interactive Weather Map New forecast layout! Learn more

10-Day Weather Forecast

Advertisements
Track Severe Weather on mobile